Time;durP1;ratioP1;P1;durP2;ratioP2;P2;SDS_P1;SDS_P2;PMS_P1;PMS_P2;Temp;Humidity;BMP_temperature;BMP_pressure;BME280_temperature;BME280_humidity;BME280_pressure;Samples;Min_cycle;Max_cycle;Signal;HPM_P1;HPM_P2
2021/05/01 00:00:07;;;;;;;47.42;30.17;;;6.50;99.90;;;;;;5011612;28;20137;-78
2021/05/01 00:02:33;;;;;;;47.05;31.67;;;6.50;99.90;;;;;;5011641;28;20026;-78
2021/05/01 00:04:59;;;;;;;44.40;30.58;;;6.50;99.90;;;;;;5010752;28;20052;-78
2021/05/01 00:07:24;;;;;;;48.55;31.38;;;6.50;99.90;;;;;;5011686;28;20038;-77
2021/05/01 00:09:50;;;;;;;45.15;32.33;;;6.50;99.90;;;;;;5011198;28;20034;-77
2021/05/01 00:12:15;;;;;;;46.55;30.52;;;6.50;99.90;;;;;;5011668;28;20478;-78
2021/05/01 00:14:41;;;;;;;48.00;32.20;;;6.40;99.90;;;;;;5008847;28;20502;-78
2021/05/01 00:17:06;;;;;;;45.15;30.88;;;6.40;99.90;;;;;;5011507;28;20081;-78
2021/05/01 00:19:32;;;;;;;44.10;31.60;;;6.30;99.90;;;;;;5010264;28;20029;-78
2021/05/01 00:21:58;;;;;;;42.80;30.80;;;6.40;99.90;;;;;;5010147;28;20026;-78
2021/05/01 00:24:23;;;;;;;50.45;32.13;;;6.30;99.90;;;;;;5008696;28;20034;-78
2021/05/01 00:26:49;;;;;;;47.40;32.97;;;6.30;99.90;;;;;;5010277;28;20029;-78
2021/05/01 00:29:15;;;;;;;45.75;31.92;;;6.30;99.90;;;;;;5011365;28;20030;-78
2021/05/01 00:31:40;;;;;;;49.78;33.35;;;6.40;99.90;;;;;;5010063;28;20113;-78
2021/05/01 00:34:06;;;;;;;54.75;32.78;;;6.30;99.90;;;;;;5010060;28;20105;-77
2021/05/01 00:36:31;;;;;;;53.83;35.10;;;6.40;99.90;;;;;;5011348;28;20053;-78
2021/05/01 00:38:57;;;;;;;56.47;34.50;;;6.40;99.90;;;;;;5011068;28;20029;-78
2021/05/01 00:41:23;;;;;;;53.95;33.13;;;6.40;99.90;;;;;;5011310;28;20030;-78
2021/05/01 00:43:49;;;;;;;46.38;32.35;;;6.40;99.90;;;;;;5014347;28;20508;-78
2021/05/01 00:46:14;;;;;;;53.15;33.85;;;6.40;99.90;;;;;;5013526;28;20030;-78
2021/05/01 00:48:40;;;;;;;59.20;35.35;;;6.40;99.90;;;;;;5014921;28;20121;-78
2021/05/01 00:51:06;;;;;;;50.92;33.67;;;6.40;99.90;;;;;;5014745;28;20025;-78
2021/05/01 00:53:32;;;;;;;48.22;34.05;;;6.40;99.90;;;;;;5014743;28;20037;-78
2021/05/01 00:55:59;;;;;;;44.63;31.88;;;6.30;99.90;;;;;;5013436;28;20165;-78
2021/05/01 00:58:24;;;;;;;47.45;31.27;;;6.30;99.90;;;;;;5013790;28;20422;-78
2021/05/01 01:03:19;;;;;;;48.72;31.95;;;6.20;99.90;;;;;;5014899;28;20121;-77
2021/05/01 01:05:45;;;;;;;51.45;30.40;;;6.20;99.90;;;;;;5012101;28;20062;-78
2021/05/01 01:08:10;;;;;;;44.58;30.30;;;6.10;99.90;;;;;;5014419;28;20064;-78
2021/05/01 01:10:36;;;;;;;44.13;31.23;;;6.10;99.90;;;;;;5014066;28;20049;-78
2021/05/01 01:13:02;;;;;;;45.90;31.15;;;6.00;99.90;;;;;;5013984;28;20029;-78
2021/05/01 01:15:30;;;;;;;44.03;30.85;;;6.00;99.90;;;;;;5012927;28;20026;-77
2021/05/01 01:17:56;;;;;;;42.35;29.63;;;5.90;99.90;;;;;;5014206;28;20041;-78
2021/05/01 01:20:23;;;;;;;44.22;27.83;;;5.80;99.90;;;;;;5012701;28;20068;-77
2021/05/01 01:22:49;;;;;;;47.55;30.30;;;5.80;99.90;;;;;;5014249;28;20026;-78
2021/05/01 01:25:15;;;;;;;41.88;30.20;;;5.70;99.90;;;;;;5012034;28;20030;-78
2021/05/01 01:27:43;;;;;;;48.80;31.55;;;5.70;99.90;;;;;;5013879;28;20429;-78
2021/05/01 01:30:12;;;;;;;40.53;28.80;;;5.60;99.90;;;;;;5012747;28;20076;-78
2021/05/01 01:32:38;;;;;;;42.20;28.27;;;5.50;99.90;;;;;;5014004;28;20026;-78
2021/05/01 01:35:05;;;;;;;45.88;31.15;;;5.40;99.90;;;;;;5012282;28;20117;-77
2021/05/01 01:37:31;;;;;;;44.30;28.60;;;5.30;99.90;;;;;;5012683;28;20659;-77
2021/05/01 01:39:56;;;;;;;46.90;28.95;;;5.20;99.90;;;;;;5012265;28;20022;-77
2021/05/01 01:42:22;;;;;;;45.35;31.13;;;5.10;99.90;;;;;;5013736;28;20026;-77
2021/05/01 01:44:47;;;;;;;43.67;30.42;;;5.00;99.90;;;;;;5027828;28;20444;-77
2021/05/01 01:47:13;;;;;;;45.65;29.38;;;5.00;99.90;;;;;;5013867;28;20025;-77
2021/05/01 01:49:40;;;;;;;49.00;29.75;;;4.90;99.90;;;;;;5013602;28;20037;-78
2021/05/01 01:52:07;;;;;;;44.40;30.58;;;4.80;99.90;;;;;;5013555;28;20029;-78
2021/05/01 01:54:35;;;;;;;44.20;29.02;;;4.80;99.90;;;;;;5011400;28;20036;-78
2021/05/01 01:57:01;;;;;;;45.60;30.55;;;4.70;99.90;;;;;;5013189;28;20429;-78
2021/05/01 01:59:30;;;;;;;45.00;30.23;;;4.60;99.90;;;;;;5013351;28;20018;-77
2021/05/01 02:01:56;;;;;;;43.58;28.85;;;4.60;99.90;;;;;;5013435;28;20018;-78
2021/05/01 02:04:22;;;;;;;49.00;30.63;;;4.50;99.90;;;;;;5011184;28;20029;-78
2021/05/01 02:06:48;;;;;;;48.30;30.17;;;4.50;99.90;;;;;;5011946;28;20029;-78
2021/05/01 02:09:14;;;;;;;47.38;31.17;;;4.40;99.90;;;;;;5013060;28;20121;-78
2021/05/01 02:11:39;;;;;;;49.50;32.47;;;4.40;99.90;;;;;;5013296;28;20112;-78
2021/05/01 02:14:06;;;;;;;46.70;29.85;;;4.30;99.90;;;;;;5011632;28;20030;-78
2021/05/01 02:16:32;;;;;;;50.58;29.83;;;4.30;99.90;;;;;;5011929;28;20432;-78
2021/05/01 02:18:58;;;;;;;48.55;30.52;;;4.20;99.90;;;;;;5012827;28;20049;-78
2021/05/01 02:21:23;;;;;;;44.20;29.10;;;4.10;99.90;;;;;;5012814;28;20081;-78
2021/05/01 02:23:49;;;;;;;44.58;29.13;;;4.10;99.90;;;;;;5011910;28;20105;-78
2021/05/01 02:26:16;;;;;;;45.53;30.60;;;4.00;99.90;;;;;;5012389;28;20049;-78
2021/05/01 02:28:41;;;;;;;51.67;32.17;;;3.90;99.90;;;;;;5012779;28;20483;-78
2021/05/01 02:31:07;;;;;;;51.60;33.00;;;3.90;99.90;;;;;;5011728;28;20105;-78
2021/05/01 02:33:32;;;;;;;51.08;30.60;;;3.90;99.90;;;;;;5012553;28;20065;-78
2021/05/01 02:35:58;;;;;;;55.40;31.98;;;3.90;99.90;;;;;;5010044;28;20045;-79
2021/05/01 02:38:24;;;;;;;49.03;31.77;;;3.80;99.90;;;;;;5012297;28;20026;-78
2021/05/01 02:40:50;;;;;;;51.10;31.58;;;3.80;99.90;;;;;;5012400;28;20033;-78
2021/05/01 02:43:16;;;;;;;46.10;30.13;;;3.80;99.90;;;;;;5012497;28;20072;-78
2021/05/01 02:45:42;;;;;;;45.85;29.35;;;3.70;99.90;;;;;;5011816;28;20025;-78
2021/05/01 02:48:08;;;;;;;41.47;28.55;;;3.70;99.90;;;;;;5012656;28;20022;-78
2021/05/01 02:50:34;;;;;;;45.40;29.73;;;3.70;99.90;;;;;;5012479;28;20033;-78
2021/05/01 02:53:00;;;;;;;42.60;29.00;;;3.70;99.90;;;;;;5012523;28;20026;-78
2021/05/01 02:55:25;;;;;;;46.70;30.73;;;3.60;99.90;;;;;;5011021;28;20065;-78
2021/05/01 02:57:52;;;;;;;50.60;31.42;;;3.50;99.90;;;;;;5012268;28;20048;-78
2021/05/01 03:00:21;;;;;;;44.40;30.27;;;3.50;99.90;;;;;;5012633;28;20109;-78
2021/05/01 03:02:46;;;;;;;51.63;32.63;;;3.50;99.90;;;;;;5012370;28;20109;-78
2021/05/01 03:05:15;;;;;;;55.47;33.42;;;3.40;99.90;;;;;;5011393;28;20097;-78
2021/05/01 03:07:41;;;;;;;51.08;33.13;;;3.40;99.90;;;;;;5012251;28;20022;-78
2021/05/01 03:10:09;;;;;;;59.53;33.28;;;3.40;99.90;;;;;;5011806;28;20398;-78
2021/05/01 03:12:35;;;;;;;50.92;32.33;;;3.40;99.90;;;;;;5012347;28;20025;-78
2021/05/01 03:15:01;;;;;;;47.90;31.45;;;3.40;99.90;;;;;;5010945;28;20029;-78
2021/05/01 03:17:26;;;;;;;51.92;30.45;;;3.40;99.90;;;;;;5012125;28;20029;-78
2021/05/01 03:19:52;;;;;;;54.38;30.23;;;3.40;99.90;;;;;;5012110;28;20399;-78
2021/05/01 03:22:18;;;;;;;47.63;29.33;;;3.40;99.90;;;;;;5012010;28;20026;-78
2021/05/01 03:24:43;;;;;;;42.55;29.02;;;3.40;99.90;;;;;;5011248;28;20029;-78
2021/05/01 03:27:09;;;;;;;45.13;30.58;;;3.40;99.90;;;;;;5012091;28;20025;-78
2021/05/01 03:29:34;;;;;;;46.08;30.88;;;3.50;99.90;;;;;;5011997;28;20026;-78
2021/05/01 03:32:00;;;;;;;48.38;30.80;;;3.50;99.90;;;;;;5011850;28;20038;-78
2021/05/01 03:34:26;;;;;;;47.95;31.00;;;3.50;99.90;;;;;;5010659;28;20101;-78
2021/05/01 03:36:51;;;;;;;48.00;30.50;;;3.60;99.90;;;;;;5011922;28;20394;-78
2021/05/01 03:39:17;;;;;;;48.55;31.77;;;3.60;99.90;;;;;;5011684;28;20022;-78
2021/05/01 03:41:44;;;;;;;50.03;31.23;;;3.60;99.90;;;;;;5011402;28;20030;-78
2021/05/01 03:44:09;;;;;;;48.97;29.92;;;3.70;99.90;;;;;;5011163;28;20399;-78
2021/05/01 03:46:35;;;;;;;49.00;29.70;;;3.70;99.90;;;;;;5012044;28;20040;-79
2021/05/01 03:49:01;;;;;;;50.03;30.42;;;3.70;99.90;;;;;;5011843;28;20057;-79
2021/05/01 03:51:26;;;;;;;51.42;32.30;;;3.70;99.90;;;;;;5011307;28;20033;-78
2021/05/01 03:53:52;;;;;;;46.22;29.10;;;3.70;99.90;;;;;;5010671;28;20070;-78
2021/05/01 03:56:18;;;;;;;44.88;28.60;;;3.70;99.90;;;;;;5011708;28;20014;-78
2021/05/01 03:58:43;;;;;;;47.95;28.98;;;3.70;99.90;;;;;;5011748;28;20093;-78
2021/05/01 04:01:09;;;;;;;39.88;27.83;;;3.70;99.90;;;;;;5009415;28;20026;-78
2021/05/01 04:03:34;;;;;;;48.97;31.45;;;3.70;99.90;;;;;;5011057;28;20037;-77
2021/05/01 04:06:00;;;;;;;44.92;30.00;;;3.60;99.90;;;;;;5011045;28;20720;-78
2021/05/01 04:08:26;;;;;;;48.78;28.95;;;3.60;99.90;;;;;;5011650;28;20057;-78
2021/05/01 04:10:52;;;;;;;51.30;32.53;;;3.60;99.90;;;;;;5011280;28;20386;-78
2021/05/01 04:13:18;;;;;;;47.20;30.02;;;3.60;99.90;;;;;;5011639;28;20022;-78
2021/05/01 04:15:43;;;;;;;52.70;32.58;;;3.60;99.90;;;;;;5010799;28;20548;-78
2021/05/01 04:18:13;;;;;;;51.63;30.73;;;3.60;99.90;;;;;;5013273;28;20517;-78
2021/05/01 04:20:39;;;;;;;52.15;31.48;;;3.60;99.90;;;;;;5014659;28;20038;-78
2021/05/01 04:23:05;;;;;;;45.92;30.83;;;3.60;99.90;;;;;;5015388;28;20018;-78
2021/05/01 04:25:30;;;;;;;56.75;31.45;;;3.60;99.90;;;;;;5012783;28;20037;-78
2021/05/01 04:27:56;;;;;;;58.05;33.58;;;3.60;99.90;;;;;;5015290;28;20025;-78
2021/05/01 04:30:22;;;;;;;60.65;34.28;;;3.70;99.90;;;;;;5015039;28;20061;-78
2021/05/01 04:32:49;;;;;;;66.85;35.67;;;3.70;99.90;;;;;;5015182;28;20073;-78
2021/05/01 04:35:15;;;;;;;59.75;36.08;;;3.80;99.90;;;;;;5014282;28;20018;-78
2021/05/01 04:37:40;;;;;;;65.13;36.63;;;3.90;99.90;;;;;;5013899;28;20071;-78
2021/05/01 04:40:06;;;;;;;72.65;37.85;;;4.00;99.90;;;;;;5014194;28;20036;-78
2021/05/01 04:42:32;;;;;;;60.72;36.60;;;4.10;99.90;;;;;;5013777;28;20022;-78
2021/05/01 04:44:57;;;;;;;64.65;36.83;;;4.20;99.90;;;;;;5014131;28;20056;-78
2021/05/01 04:47:24;;;;;;;69.57;40.08;;;4.30;99.90;;;;;;5014443;28;20022;-78
2021/05/01 04:49:49;;;;;;;66.25;36.67;;;4.30;99.90;;;;;;5029916;28;20065;-78
2021/05/01 04:52:15;;;;;;;63.28;38.88;;;4.40;99.90;;;;;;5014876;28;20060;-78
2021/05/01 04:54:40;;;;;;;63.30;38.03;;;4.60;99.90;;;;;;5013863;28;20393;-78
2021/05/01 04:57:06;;;;;;;65.45;37.13;;;4.70;99.90;;;;;;5014853;28;20022;-78
2021/05/01 04:59:31;;;;;;;68.80;38.75;;;4.90;99.90;;;;;;5014618;28;20018;-78
2021/05/01 05:01:57;;;;;;;67.18;40.17;;;5.00;99.90;;;;;;5013742;28;20101;-78
2021/05/01 05:04:23;;;;;;;69.70;41.20;;;5.10;99.90;;;;;;5013252;28;20037;-78
2021/05/01 05:06:48;;;;;;;66.97;39.78;;;5.20;99.90;;;;;;5013045;28;20108;-78
2021/05/01 05:09:14;;;;;;;66.53;38.92;;;5.30;99.90;;;;;;5014233;28;20080;-78
2021/05/01 05:11:39;;;;;;;68.70;39.67;;;5.40;99.90;;;;;;5014320;28;20034;-78
2021/05/01 05:14:05;;;;;;;69.65;40.00;;;5.50;99.90;;;;;;5013770;28;20033;-78
2021/05/01 05:16:30;;;;;;;67.63;39.00;;;5.70;99.90;;;;;;5012927;28;20057;-78
2021/05/01 05:18:56;;;;;;;63.88;37.70;;;5.80;99.90;;;;;;5014345;28;20145;-78
2021/05/01 05:21:22;;;;;;;65.38;37.17;;;5.90;99.90;;;;;;5014220;28;20022;-78
2021/05/01 05:23:48;;;;;;;63.35;36.08;;;6.10;99.90;;;;;;5013613;28;20018;-78
2021/05/01 05:26:15;;;;;;;57.75;35.05;;;6.30;99.90;;;;;;5013379;28;20030;-78
2021/05/01 05:28:40;;;;;;;55.40;34.85;;;6.40;99.90;;;;;;5011759;28;20071;-78
2021/05/01 05:31:06;;;;;;;53.75;34.17;;;6.50;99.90;;;;;;5014035;28;20383;-78
2021/05/01 05:33:31;;;;;;;57.65;35.33;;;6.80;99.90;;;;;;5014014;28;20053;-78
2021/05/01 05:35:57;;;;;;;49.55;31.00;;;6.90;99.90;;;;;;5012025;28;20026;-78
2021/05/01 05:38:22;;;;;;;47.25;31.20;;;7.00;99.90;;;;;;5012715;28;20022;-78
2021/05/01 05:40:48;;;;;;;51.28;32.08;;;7.10;99.90;;;;;;5013388;28;20044;-78
2021/05/01 05:43:14;;;;;;;46.33;30.38;;;7.20;99.90;;;;;;5013885;28;20025;-78
2021/05/01 05:45:41;;;;;;;49.33;27.05;;;7.30;99.90;;;;;;5012541;28;20030;-78
2021/05/01 05:48:07;;;;;;;41.97;28.40;;;7.40;99.90;;;;;;5012549;28;20368;-78
2021/05/01 05:50:33;;;;;;;47.67;28.95;;;7.50;99.90;;;;;;5013657;28;20105;-78
2021/05/01 05:52:59;;;;;;;39.88;27.80;;;7.70;99.90;;;;;;5013700;28;20572;-78
2021/05/01 05:55:26;;;;;;;40.40;28.17;;;7.90;99.90;;;;;;5012593;28;20030;-78
2021/05/01 05:57:54;;;;;;;35.45;24.05;;;8.00;99.90;;;;;;5013648;28;20014;-78
2021/05/01 06:00:22;;;;;;;39.53;23.30;;;8.00;99.90;;;;;;5013453;28;20045;-78
2021/05/01 06:02:47;;;;;;;40.13;25.05;;;8.00;99.90;;;;;;5010673;28;20054;-78
2021/05/01 06:05:13;;;;;;;35.50;23.50;;;8.10;99.90;;;;;;5022149;28;20064;-78
2021/05/01 06:07:51;;;;;;;33.53;21.48;;;8.30;99.90;;;;;;4995633;28;20041;-78
2021/05/01 06:10:17;;;;;;;39.30;23.02;;;8.20;99.90;;;;;;4991905;28;20085;-78
2021/05/01 06:12:43;;;;;;;33.63;21.42;;;8.30;99.90;;;;;;4997193;28;20038;-78
2021/05/01 06:15:13;;;;;;;39.47;23.20;;;8.30;99.90;;;;;;5003301;28;20124;-78
2021/05/01 06:17:39;;;;;;;33.95;20.90;;;8.30;99.90;;;;;;4997869;28;20024;-78
2021/05/01 06:20:06;;;;;;;29.25;20.60;;;8.30;99.90;;;;;;4998358;28;20671;-77
2021/05/01 06:22:32;;;;;;;34.00;22.85;;;8.20;99.90;;;;;;5002774;28;20421;-77
2021/05/01 06:24:59;;;;;;;32.67;21.83;;;8.20;99.90;;;;;;4996951;28;20110;-77
2021/05/01 06:27:24;;;;;;;33.38;20.33;;;8.10;99.90;;;;;;4997908;28;20036;-77
2021/05/01 06:29:50;;;;;;;38.17;22.05;;;8.00;99.90;;;;;;4994882;28;20029;-78
2021/05/01 06:32:18;;;;;;;31.63;20.67;;;8.00;99.90;;;;;;5012860;28;20022;-77
2021/05/01 06:34:46;;;;;;;33.65;22.70;;;8.10;99.90;;;;;;5011546;28;20474;-77
2021/05/01 06:37:16;;;;;;;32.92;20.40;;;8.20;99.90;;;;;;5004314;28;20022;-77
2021/05/01 06:39:42;;;;;;;36.88;17.58;;;8.30;99.90;;;;;;4995777;28;20072;-78
2021/05/01 06:42:12;;;;;;;28.15;18.35;;;8.30;99.90;;;;;;5003112;28;20398;-77
2021/05/01 06:44:48;;;;;;;24.63;18.13;;;8.40;99.90;;;;;;4998041;28;20030;-77
2021/05/01 06:47:16;;;;;;;29.05;18.67;;;8.60;99.90;;;;;;5004624;28;20030;-77
2021/05/01 06:49:57;;;;;;;28.48;16.77;;;8.70;99.90;;;;;;4998252;28;20021;-77
2021/05/01 06:52:23;;;;;;;27.35;17.80;;;8.80;99.90;;;;;;4997458;28;20068;-77
2021/05/01 06:54:52;;;;;;;26.17;17.02;;;8.90;99.90;;;;;;5000598;28;20084;-77
2021/05/01 06:57:25;;;;;;;27.67;17.60;;;8.90;99.90;;;;;;4991479;28;20045;-77
2021/05/01 06:59:56;;;;;;;29.63;17.17;;;9.00;99.90;;;;;;4992689;28;20018;-78
2021/05/01 07:02:32;;;;;;;24.10;16.58;;;9.10;99.90;;;;;;4991646;28;20022;-77
2021/05/01 07:04:58;;;;;;;27.85;17.42;;;9.40;99.90;;;;;;4992560;28;20028;-77
2021/05/01 07:07:27;;;;;;;21.92;15.45;;;9.80;99.90;;;;;;5009424;28;20030;-77
2021/05/01 07:09:53;;;;;;;20.33;14.70;;;10.10;99.90;;;;;;5005925;28;20069;-78
2021/05/01 07:12:20;;;;;;;20.08;14.93;;;10.40;99.90;;;;;;4997451;28;20025;-77
2021/05/01 07:14:46;;;;;;;24.15;15.52;;;10.70;99.90;;;;;;4997145;28;20105;-77
2021/05/01 07:17:13;;;;;;;20.13;15.05;;;11.00;99.90;;;;;;4992339;28;20023;-78
2021/05/01 07:19:40;;;;;;;17.42;13.40;;;11.10;99.90;;;;;;5001417;28;20384;-78
2021/05/01 07:22:06;;;;;;;20.05;13.30;;;11.00;99.90;;;;;;4999454;28;20482;-78
2021/05/01 07:24:32;;;;;;;20.00;12.52;;;11.10;99.90;;;;;;4995469;28;20025;-77
2021/05/01 07:26:58;;;;;;;16.10;12.63;;;10.90;99.90;;;;;;5002801;28;20520;-78
2021/05/01 07:29:27;;;;;;;18.42;11.45;;;10.80;99.90;;;;;;5010171;28;20045;-77
2021/05/01 07:31:55;;;;;;;15.35;11.82;;;10.70;99.90;;;;;;5011784;28;20037;-77
2021/05/01 07:34:22;;;;;;;18.02;13.40;;;10.70;99.90;;;;;;5009704;28;20025;-77
2021/05/01 07:36:51;;;;;;;17.08;12.57;;;10.60;99.90;;;;;;5012006;28;20081;-77
2021/05/01 07:39:19;;;;;;;15.10;10.77;;;10.60;99.90;;;;;;5011680;28;20045;-77
2021/05/01 07:41:46;;;;;;;16.40;10.80;;;10.60;99.90;;;;;;5011450;28;20145;-78
2021/05/01 07:44:12;;;;;;;20.25;12.60;;;10.60;99.90;;;;;;5011195;28;20033;-77
2021/05/01 07:46:39;;;;;;;15.93;11.23;;;10.80;99.90;;;;;;5011568;28;20084;-77
2021/05/01 07:49:06;;;;;;;14.45;11.02;;;10.80;99.90;;;;;;5010422;28;20034;-77
2021/05/01 07:51:35;;;;;;;14.68;11.48;;;10.90;99.90;;;;;;5010044;28;20064;-77
2021/05/01 07:54:01;;;;;;;18.42;11.02;;;10.90;99.90;;;;;;5009414;28;20379;-77
2021/05/01 07:56:27;;;;;;;17.45;12.20;;;11.00;99.90;;;;;;5011391;28;20482;-77
2021/05/01 07:58:54;;;;;;;16.73;11.35;;;11.00;99.90;;;;;;5011628;28;20384;-77
2021/05/01 08:01:19;;;;;;;18.70;11.52;;;11.00;99.90;;;;;;5008504;28;20045;-77
2021/05/01 08:03:47;;;;;;;17.40;12.15;;;11.00;99.90;;;;;;4999510;28;20356;-77
2021/05/01 08:06:12;;;;;;;14.68;11.02;;;11.00;99.90;;;;;;4999143;28;20117;-77
2021/05/01 08:08:38;;;;;;;15.38;11.18;;;10.90;99.90;;;;;;5026843;28;20058;-77
2021/05/01 08:11:04;;;;;;;20.15;11.82;;;10.80;99.90;;;;;;4999521;28;20034;-77
2021/05/01 08:13:29;;;;;;;18.20;11.07;;;10.90;99.90;;;;;;5010152;28;20077;-77
2021/05/01 08:15:55;;;;;;;18.55;11.45;;;10.80;99.90;;;;;;5010885;28;20026;-77
2021/05/01 08:18:21;;;;;;;15.98;11.68;;;10.80;99.90;;;;;;5011321;28;20073;-77
2021/05/01 08:20:49;;;;;;;17.27;11.43;;;10.80;99.90;;;;;;5008731;28;20116;-77
2021/05/01 08:23:15;;;;;;;18.13;11.82;;;11.00;99.90;;;;;;5000363;28;20418;-77
2021/05/01 08:25:40;;;;;;;16.48;11.38;;;11.10;99.90;;;;;;5010811;28;20026;-77
2021/05/01 08:28:06;;;;;;;16.17;11.10;;;11.30;99.90;;;;;;5003345;28;20038;-77
2021/05/01 08:30:32;;;;;;;16.98;11.18;;;11.40;99.90;;;;;;5011261;28;20028;-77
2021/05/01 08:32:57;;;;;;;15.50;10.07;;;11.60;99.90;;;;;;5010078;28;20030;-77
2021/05/01 08:35:23;;;;;;;18.35;9.57;;;11.70;99.90;;;;;;5010709;28;20030;-77
2021/05/01 08:37:48;;;;;;;14.75;10.75;;;11.70;99.90;;;;;;5010987;28;20030;-77
2021/05/01 08:40:15;;;;;;;14.38;10.18;;;11.70;99.90;;;;;;4998361;28;20042;-77
2021/05/01 08:42:46;;;;;;;16.05;9.95;;;11.70;99.90;;;;;;4991742;28;20025;-77
2021/05/01 08:45:17;;;;;;;15.50;10.88;;;11.80;99.90;;;;;;4991075;28;20027;-80
2021/05/01 08:47:46;;;;;;;13.50;10.13;;;12.00;99.90;;;;;;4991628;28;20023;-77
2021/05/01 08:50:26;;;;;;;11.57;8.93;;;12.20;99.90;;;;;;4991634;28;20023;-77
2021/05/01 08:52:53;;;;;;;12.77;9.45;;;12.30;99.90;;;;;;4991656;28;20523;-77
2021/05/01 08:55:24;;;;;;;13.65;9.40;;;12.40;99.90;;;;;;5002440;28;20036;-77
2021/05/01 08:57:50;;;;;;;15.02;9.38;;;12.60;99.90;;;;;;5011298;28;20105;-77
2021/05/01 09:00:16;;;;;;;15.90;8.95;;;12.80;99.90;;;;;;5011237;28;20469;-77
2021/05/01 09:02:42;;;;;;;18.00;9.02;;;12.90;99.90;;;;;;5009610;28;20533;-77
2021/05/01 09:05:10;;;;;;;12.55;8.80;;;12.80;99.90;;;;;;5012681;28;20033;-77
2021/05/01 09:07:42;;;;;;;12.90;9.25;;;12.80;99.90;;;;;;5014498;28;20505;-77
2021/05/01 09:10:08;;;;;;;15.18;8.75;;;12.70;99.90;;;;;;5014391;28;20092;-77
2021/05/01 09:12:47;;;;;;;11.07;9.25;;;12.70;99.90;;;;;;5014559;28;20029;-77
2021/05/01 09:15:24;;;;;;;17.95;8.77;;;12.70;99.90;;;;;;5013547;28;20402;-78
2021/05/01 09:18:01;;;;;;;16.75;9.93;;;12.70;99.90;;;;;;4994593;28;20033;-77
2021/05/01 09:20:27;;;;;;;15.25;9.55;;;12.80;99.90;;;;;;4993575;28;20089;-77
2021/05/01 09:23:01;;;;;;;15.95;9.32;;;12.70;99.90;;;;;;4994675;28;20018;-78
2021/05/01 09:25:28;;;;;;;13.85;9.73;;;12.50;99.90;;;;;;4993990;28;20022;-77
2021/05/01 09:28:13;;;;;;;17.85;9.15;;;12.80;99.90;;;;;;4994482;28;20475;-77
2021/05/01 09:30:41;;;;;;;17.13;8.93;;;13.40;99.90;;;;;;4994515;28;20105;-77
2021/05/01 09:33:18;;;;;;;9.80;7.78;;;13.80;99.90;;;;;;4994509;28;20110;-77
2021/05/01 09:35:49;;;;;;;12.52;8.85;;;14.40;99.90;;;;;;5008815;28;20505;-77
2021/05/01 09:38:15;;;;;;;13.48;7.80;;;14.90;99.90;;;;;;4994612;28;20025;-79
2021/05/01 09:40:46;;;;;;;11.80;8.15;;;15.10;99.90;;;;;;4994083;28;20109;-78
2021/05/01 09:43:12;;;;;;;10.98;7.40;;;15.30;99.90;;;;;;4994252;28;20031;-77
2021/05/01 09:45:38;;;;;;;10.57;7.07;;;15.10;99.90;;;;;;4993634;28;20088;-78
2021/05/01 09:48:17;;;;;;;9.70;6.72;;;14.90;99.90;;;;;;4994307;28;20052;-80
2021/05/01 09:50:43;;;;;;;12.57;7.90;;;14.60;99.90;;;;;;4994147;28;20073;-78
2021/05/01 09:53:13;;;;;;;9.65;7.00;;;14.90;99.90;;;;;;4992962;28;20027;-78
2021/05/01 09:55:54;;;;;;;9.45;7.00;;;15.30;99.90;;;;;;5003933;28;20138;-78
2021/05/01 09:58:22;;;;;;;19.48;9.27;;;15.70;99.90;;;;;;5004490;28;20033;-77
2021/05/01 10:00:49;;;;;;;16.80;8.02;;;16.10;99.90;;;;;;5007161;28;20026;-77
2021/05/01 10:03:27;;;;;;;12.15;7.68;;;16.20;99.90;;;;;;5006185;28;20022;-77
2021/05/01 10:05:55;;;;;;;13.93;7.60;;;16.50;99.90;;;;;;5021884;28;20517;-77
2021/05/01 10:08:25;;;;;;;10.73;7.90;;;16.50;99.90;;;;;;4991563;28;20030;-77
2021/05/01 10:10:51;;;;;;;13.35;7.90;;;16.10;99.90;;;;;;4997742;28;20491;-77
2021/05/01 10:13:18;;;;;;;11.35;7.03;;;16.10;99.90;;;;;;5007047;28;20100;-77
2021/05/01 10:15:44;;;;;;;10.90;6.95;;;16.10;99.90;;;;;;4988355;28;20030;-78
2021/05/01 10:18:12;;;;;;;9.82;6.43;;;16.20;99.90;;;;;;4996427;28;20072;-76
2021/05/01 10:20:45;;;;;;;11.10;8.05;;;16.00;99.90;;;;;;5006565;28;20026;-77
2021/05/01 10:23:12;;;;;;;9.98;7.68;;;15.50;99.90;;;;;;5007000;28;20022;-77
2021/05/01 10:25:38;;;;;;;11.25;7.03;;;15.60;99.90;;;;;;4998203;28;20057;-78
2021/05/01 10:28:10;;;;;;;10.63;7.78;;;15.80;99.90;;;;;;5005255;28;20108;-77
2021/05/01 10:30:53;;;;;;;14.45;8.05;;;15.70;99.90;;;;;;5006250;28;20022;-77
2021/05/01 10:33:33;;;;;;;13.82;7.53;;;15.90;99.90;;;;;;4998556;28;20076;-78
2021/05/01 10:36:27;;;;;;;15.60;8.15;;;15.90;99.90;;;;;;4997533;28;20030;-77
2021/05/01 10:39:09;;;;;;;16.08;8.27;;;16.20;99.90;;;;;;5006400;28;20034;-77
2021/05/01 10:41:35;;;;;;;12.32;7.38;;;16.10;99.90;;;;;;5006546;28;20034;-78
2021/05/01 10:44:04;;;;;;;12.05;8.05;;;16.10;99.90;;;;;;5000396;28;20018;-77
2021/05/01 10:46:34;;;;;;;12.48;8.20;;;16.60;99.90;;;;;;4996402;28;20033;-77
2021/05/01 10:49:05;;;;;;;11.95;7.30;;;16.80;99.90;;;;;;5005950;28;20057;-77
2021/05/01 10:51:39;;;;;;;9.95;7.35;;;16.80;99.90;;;;;;4992735;28;20101;-77
2021/05/01 10:54:12;;;;;;;10.40;7.35;;;16.70;99.90;;;;;;5005444;28;20084;-78
2021/05/01 10:56:44;;;;;;;11.40;7.60;;;16.40;99.90;;;;;;4987250;28;20080;-78
2021/05/01 10:59:16;;;;;;;15.27;7.72;;;16.00;99.90;;;;;;5005598;28;20057;-78
2021/05/01 11:01:47;;;;;;;10.75;8.15;;;15.80;99.90;;;;;;5004957;28;20092;-77
2021/05/01 11:04:16;;;;;;;10.43;6.68;;;16.00;99.90;;;;;;4996867;28;20474;-78
2021/05/01 11:06:50;;;;;;;11.48;7.82;;;15.90;99.90;;;;;;4998375;28;20100;-77
2021/05/01 11:09:36;;;;;;;11.43;8.60;;;15.50;99.90;;;;;;5000766;28;20030;-79
2021/05/01 11:12:04;;;;;;;12.48;8.50;;;15.60;99.90;;;;;;5012215;28;20041;-77
2021/05/01 11:14:39;;;;;;;12.00;8.05;;;15.60;99.90;;;;;;5011658;28;20437;-78
2021/05/01 11:17:12;;;;;;;11.90;8.27;;;15.60;99.90;;;;;;5012363;28;20045;-78
2021/05/01 11:19:46;;;;;;;14.15;7.95;;;15.40;99.90;;;;;;5027485;28;20402;-78
2021/05/01 11:22:19;;;;;;;9.35;7.60;;;15.40;99.90;;;;;;5011287;28;20026;-78
2021/05/01 11:24:45;;;;;;;12.40;8.15;;;16.20;99.90;;;;;;4991926;28;20030;-77
2021/05/01 11:27:11;;;;;;;10.95;8.25;;;16.50;99.90;;;;;;4991498;28;20081;-77
2021/05/01 11:29:39;;;;;;;10.68;7.80;;;16.30;99.90;;;;;;4992302;28;20069;-77
2021/05/01 11:32:05;;;;;;;12.45;7.75;;;16.30;99.90;;;;;;5007402;28;20027;-77
2021/05/01 11:34:32;;;;;;;10.15;7.75;;;16.20;99.90;;;;;;4991832;28;20061;-77
2021/05/01 11:37:02;;;;;;;15.38;8.30;;;15.80;99.90;;;;;;5011887;28;20065;-77
2021/05/01 11:39:29;;;;;;;12.23;8.63;;;15.80;99.90;;;;;;5010510;28;20033;-77
2021/05/01 11:41:57;;;;;;;11.70;7.43;;;16.10;99.90;;;;;;5010725;28;20208;-77
2021/05/01 11:44:25;;;;;;;9.75;7.53;;;16.40;99.90;;;;;;5011307;28;20034;-77
2021/05/01 11:47:10;;;;;;;11.27;8.27;;;16.20;99.90;;;;;;5011840;28;20048;-77
2021/05/01 11:49:36;;;;;;;13.07;8.18;;;16.20;99.90;;;;;;5010462;28;20030;-77
2021/05/01 11:52:02;;;;;;;16.75;8.23;;;16.40;99.90;;;;;;5011559;28;20536;-77
2021/05/01 11:54:36;;;;;;;13.48;8.27;;;16.50;99.90;;;;;;5011021;28;20498;-78
2021/05/01 11:57:14;;;;;;;13.90;9.13;;;16.50;99.90;;;;;;5011809;28;20068;-77
2021/05/01 11:59:44;;;;;;;9.93;7.63;;;16.80;99.90;;;;;;5011498;28;20125;-78
2021/05/01 12:02:11;;;;;;;10.77;7.85;;;16.40;99.90;;;;;;5009756;28;20508;-77
2021/05/01 12:04:42;;;;;;;15.07;8.18;;;16.00;99.90;;;;;;5011037;28;20026;-77
2021/05/01 12:07:11;;;;;;;12.40;8.73;;;16.20;99.90;;;;;;5011666;28;20025;-77
2021/05/01 12:09:40;;;;;;;11.35;8.50;;;16.10;99.90;;;;;;5011438;28;20033;-78
2021/05/01 12:12:09;;;;;;;13.55;8.55;;;16.40;99.90;;;;;;5011459;28;20030;-77
2021/05/01 12:14:35;;;;;;;12.82;9.02;;;16.50;99.90;;;;;;5010888;28;20026;-78
2021/05/01 12:17:11;;;;;;;14.70;8.07;;;16.40;99.90;;;;;;5011644;28;20069;-77
2021/05/01 12:19:45;;;;;;;10.25;7.55;;;16.40;99.90;;;;;;5011475;28;20558;-77
2021/05/01 12:22:30;;;;;;;11.07;8.10;;;16.20;99.90;;;;;;5011403;28;20030;-77
2021/05/01 12:24:57;;;;;;;9.65;7.95;;;16.10;99.90;;;;;;5009484;28;20022;-77
2021/05/01 12:27:49;;;;;;;12.18;8.15;;;16.20;99.90;;;;;;5010970;28;20386;-77
2021/05/01 12:30:36;;;;;;;11.30;8.40;;;16.20;99.90;;;;;;5007854;28;20026;-76
2021/05/01 12:33:20;;;;;;;16.23;7.97;;;16.00;99.90;;;;;;5004823;28;20025;-77
2021/05/01 12:35:46;;;;;;;14.05;8.40;;;15.90;99.90;;;;;;5010435;28;20029;-77
2021/05/01 12:38:14;;;;;;;9.75;7.45;;;15.80;99.90;;;;;;5012769;28;20495;-77
2021/05/01 12:40:40;;;;;;;13.20;8.60;;;16.20;99.90;;;;;;5013494;28;20410;-77